Terminal Aerodrome Forecast
Issued by NWS Albany, NY

Home | Current Version | Previous Version | Text Only | Print | Product List | Glossary On
Versions: 1 2 3 4 5 6 7 8 9 10 11 12 13 14 15 16 17 18 19
363
FTUS41 KALY 290126 AAB
TAFGFL
TAF AMD
KGFL 290126Z 2901/2924 36005KT P6SM SCT080 BKN150
     FM290900 03004KT P6SM VCSH BKN050 OVC090
     FM291700 05008KT P6SM SCT050 BKN200=

USA.gov is the U.S. government's official web portal to all federal, state and local government web resources and services.